Time;durP1;ratioP1;P1;durP2;ratioP2;P2;SDS_P1;SDS_P2;PMS_P1;PMS_P2;Temp;Humidity;BMP_temperature;BMP_pressure;BME280_temperature;BME280_humidity;BME280_pressure;Samples;Min_cycle;Max_cycle;Signal;HPM_P1;HPM_P2
2023/06/27 00:02:20;;;;;;;15.07;3.03;;;18.90;99.90;;;;;;5032443;28;20128;-70
2023/06/27 00:04:47;;;;;;;13.13;2.95;;;18.90;99.90;;;;;;5031878;28;20071;-70
2023/06/27 00:07:13;;;;;;;14.88;3.10;;;18.90;99.90;;;;;;5029758;28;20037;-71
2023/06/27 00:09:38;;;;;;;15.85;3.00;;;18.90;99.90;;;;;;5033736;28;20026;-71
2023/06/27 00:12:06;;;;;;;10.55;2.83;;;18.90;99.90;;;;;;5034153;28;20021;-71
2023/06/27 00:14:36;;;;;;;13.90;3.25;;;19.00;99.90;;;;;;5033811;28;20416;-71
2023/06/27 00:17:04;;;;;;;12.10;2.90;;;19.00;99.90;;;;;;5034248;28;20041;-71
2023/06/27 00:19:31;;;;;;;17.02;3.40;;;19.00;99.90;;;;;;5026984;28;20395;-71
2023/06/27 00:21:56;;;;;;;15.48;3.35;;;19.00;99.90;;;;;;5029843;28;20018;-71
2023/06/27 00:24:23;;;;;;;14.55;3.35;;;18.90;99.90;;;;;;5027856;28;20101;-71
2023/06/27 00:26:49;;;;;;;18.48;3.53;;;18.90;99.90;;;;;;5026445;28;20116;-70
2023/06/27 00:29:15;;;;;;;13.93;3.20;;;18.90;99.90;;;;;;5014447;28;20022;-71
2023/06/27 00:31:40;;;;;;;16.13;3.28;;;18.90;99.90;;;;;;5020142;28;20073;-71
2023/06/27 00:34:06;;;;;;;15.02;2.90;;;18.80;99.90;;;;;;5033327;28;20029;-71
2023/06/27 00:36:32;;;;;;;14.93;3.30;;;18.80;99.90;;;;;;5032754;28;20513;-71
2023/06/27 00:38:57;;;;;;;15.63;3.08;;;18.80;99.90;;;;;;5022699;28;20026;-71
2023/06/27 00:41:23;;;;;;;11.43;3.10;;;18.80;99.90;;;;;;5025093;28;20381;-71
2023/06/27 00:43:49;;;;;;;13.25;3.30;;;18.80;99.90;;;;;;5030332;28;20496;-71
2023/06/27 00:46:32;;;;;;;17.85;3.50;;;18.90;99.90;;;;;;5020841;28;20465;-71
2023/06/27 00:48:58;;;;;;;15.15;3.65;;;18.90;99.90;;;;;;5033451;28;20071;-71
2023/06/27 00:51:24;;;;;;;13.70;3.17;;;18.80;99.90;;;;;;5033111;28;20535;-71
2023/06/27 00:53:49;;;;;;;14.10;3.15;;;18.80;99.90;;;;;;5032184;28;20045;-71
2023/06/27 00:56:15;;;;;;;9.93;3.05;;;18.80;99.90;;;;;;5025049;28;20108;-71
2023/06/27 00:58:41;;;;;;;14.70;3.38;;;18.80;99.90;;;;;;5032720;28;20088;-70
2023/06/27 01:01:06;;;;;;;13.43;3.47;;;18.80;99.90;;;;;;5032846;28;20025;-71
2023/06/27 01:03:32;;;;;;;13.07;2.90;;;18.80;99.90;;;;;;5032934;28;20017;-71
2023/06/27 01:06:04;;;;;;;16.05;3.65;;;18.80;99.90;;;;;;5032712;28;20021;-71
2023/06/27 01:08:41;;;;;;;15.80;3.55;;;18.80;99.90;;;;;;5032516;28;20101;-71
2023/06/27 01:11:29;;;;;;;14.85;3.35;;;18.90;99.90;;;;;;5020138;28;20110;-71
2023/06/27 01:14:00;;;;;;;16.10;3.55;;;18.80;99.90;;;;;;5030036;28;20026;-71
2023/06/27 01:16:29;;;;;;;15.40;3.88;;;18.80;99.90;;;;;;5032806;28;20497;-71
2023/06/27 01:18:57;;;;;;;15.43;3.53;;;18.90;99.90;;;;;;5032579;28;20083;-71
2023/06/27 01:21:27;;;;;;;17.55;3.45;;;18.90;99.90;;;;;;5032608;28;20057;-71
2023/06/27 01:23:55;;;;;;;23.23;4.00;;;18.90;99.90;;;;;;5032103;28;20034;-71
2023/06/27 01:26:21;;;;;;;18.80;3.85;;;18.90;99.90;;;;;;5028190;28;20037;-71
2023/06/27 01:28:47;;;;;;;16.38;3.60;;;18.90;99.90;;;;;;5024586;28;20033;-71
2023/06/27 01:31:34;;;;;;;23.58;3.80;;;18.90;99.90;;;;;;5029691;28;20386;-71
2023/06/27 01:34:10;;;;;;;17.55;3.53;;;19.00;99.90;;;;;;5025762;28;20029;-71
2023/06/27 01:36:50;;;;;;;12.30;2.97;;;18.90;99.90;;;;;;5028581;28;20436;-71
2023/06/27 01:39:21;;;;;;;17.35;3.78;;;18.90;99.90;;;;;;5027675;28;20033;-71
2023/06/27 01:41:51;;;;;;;15.68;3.25;;;18.90;99.90;;;;;;5018545;28;20029;-70
2023/06/27 01:44:19;;;;;;;19.13;3.83;;;18.90;99.90;;;;;;5025656;28;20018;-71
2023/06/27 01:46:46;;;;;;;18.13;3.83;;;18.90;99.90;;;;;;5030123;28;20067;-71
2023/06/27 01:49:12;;;;;;;13.38;3.88;;;18.90;99.90;;;;;;5018894;28;20034;-71
2023/06/27 01:51:40;;;;;;;17.52;3.95;;;18.90;99.90;;;;;;5029468;28;20155;-71
2023/06/27 01:54:06;;;;;;;13.80;3.75;;;18.90;99.90;;;;;;5017138;28;20712;-71
2023/06/27 01:56:31;;;;;;;16.85;3.95;;;18.90;99.90;;;;;;5027129;28;20030;-71
2023/06/27 01:58:57;;;;;;;18.95;3.83;;;18.90;99.90;;;;;;5025146;28;20068;-71
2023/06/27 02:01:22;;;;;;;14.02;3.63;;;18.90;99.90;;;;;;5031400;28;20021;-71
2023/06/27 02:03:48;;;;;;;13.18;3.45;;;18.90;99.90;;;;;;5029796;28;20013;-71
2023/06/27 02:06:15;;;;;;;17.25;3.92;;;18.90;99.90;;;;;;5021569;28;20488;-71
2023/06/27 02:08:41;;;;;;;20.73;3.58;;;18.90;99.90;;;;;;5022681;28;20017;-71
2023/06/27 02:11:07;;;;;;;18.83;4.07;;;18.90;99.90;;;;;;5021023;28;20018;-71
2023/06/27 02:13:37;;;;;;;17.80;4.20;;;18.90;99.90;;;;;;5031672;28;20033;-71
2023/06/27 02:16:03;;;;;;;13.68;3.72;;;18.90;99.90;;;;;;5022959;28;20041;-71
2023/06/27 02:18:29;;;;;;;23.98;4.78;;;18.80;99.90;;;;;;5031068;28;20052;-71
2023/06/27 02:20:55;;;;;;;14.13;3.88;;;18.80;99.90;;;;;;5018068;28;20060;-71
2023/06/27 02:23:20;;;;;;;20.92;4.05;;;18.80;99.90;;;;;;5022192;28;20030;-71
2023/06/27 02:25:46;;;;;;;12.77;3.80;;;18.80;99.90;;;;;;5029785;28;20032;-71
2023/06/27 02:28:11;;;;;;;19.45;3.95;;;18.80;99.90;;;;;;5030873;28;20029;-71
2023/06/27 02:30:37;;;;;;;16.10;4.22;;;18.80;99.90;;;;;;5029791;28;20024;-71
2023/06/27 02:33:03;;;;;;;17.77;4.40;;;18.70;99.90;;;;;;5027092;28;20607;-71
2023/06/27 02:35:28;;;;;;;16.02;4.53;;;18.70;99.90;;;;;;5026015;28;20032;-71
2023/06/27 02:37:54;;;;;;;15.93;4.28;;;18.70;99.90;;;;;;5030586;28;20404;-71
2023/06/27 02:40:19;;;;;;;13.98;4.18;;;18.60;99.90;;;;;;5031427;28;20096;-71
2023/06/27 02:42:45;;;;;;;17.63;4.47;;;18.60;99.90;;;;;;5031428;28;20092;-71
2023/06/27 02:45:11;;;;;;;16.10;4.57;;;18.60;99.90;;;;;;5031421;28;20044;-71
2023/06/27 02:47:36;;;;;;;17.70;4.88;;;18.60;99.90;;;;;;5030509;28;20021;-71
2023/06/27 02:50:02;;;;;;;22.27;4.88;;;18.60;99.90;;;;;;5017960;28;20014;-71
2023/06/27 02:52:28;;;;;;;15.23;4.50;;;18.50;99.90;;;;;;5027669;28;20512;-71
2023/06/27 02:54:54;;;;;;;20.35;4.97;;;18.40;99.90;;;;;;5029267;28;20056;-71
2023/06/27 02:57:20;;;;;;;19.27;4.80;;;18.40;99.90;;;;;;5030170;28;20389;-71
2023/06/27 02:59:46;;;;;;;16.15;4.43;;;18.30;99.90;;;;;;5021548;28;20104;-71
2023/06/27 03:02:12;;;;;;;20.42;4.65;;;18.30;99.90;;;;;;5027196;28;20155;-71
2023/06/27 03:04:38;;;;;;;17.40;4.80;;;18.30;99.90;;;;;;5025974;28;20041;-71
2023/06/27 03:07:04;;;;;;;15.98;4.43;;;18.30;99.90;;;;;;5027324;28;20033;-71
2023/06/27 03:09:30;;;;;;;14.93;4.57;;;18.30;99.90;;;;;;5029707;28;20026;-71
2023/06/27 03:11:55;;;;;;;20.08;4.75;;;18.30;99.90;;;;;;5015532;28;20022;-71
2023/06/27 03:14:21;;;;;;;17.27;4.93;;;18.30;99.90;;;;;;5018497;28;20424;-71
2023/06/27 03:16:47;;;;;;;17.77;4.65;;;18.20;99.90;;;;;;5025893;28;20376;-71
2023/06/27 03:19:12;;;;;;;16.02;4.38;;;18.20;99.90;;;;;;5029831;28;20045;-71
2023/06/27 03:21:38;;;;;;;21.13;4.93;;;18.30;99.90;;;;;;5026144;28;20036;-71
2023/06/27 03:24:04;;;;;;;18.25;5.00;;;18.20;99.90;;;;;;5032168;28;20060;-71
2023/06/27 03:26:30;;;;;;;14.90;5.00;;;18.20;99.90;;;;;;5032840;28;20373;-71
2023/06/27 03:28:56;;;;;;;23.50;5.63;;;18.20;99.90;;;;;;5032960;28;20030;-71
2023/06/27 03:31:22;;;;;;;19.48;5.00;;;18.20;99.90;;;;;;5027545;28;20460;-71
2023/06/27 03:33:47;;;;;;;13.35;4.20;;;18.20;99.90;;;;;;5034165;28;20022;-71
2023/06/27 03:36:13;;;;;;;16.55;5.05;;;18.10;99.90;;;;;;5033281;28;20030;-71
2023/06/27 03:38:39;;;;;;;17.13;4.95;;;18.10;99.90;;;;;;5033491;28;20345;-71
2023/06/27 03:41:05;;;;;;;18.58;5.07;;;18.10;99.90;;;;;;5023360;28;20048;-71
2023/06/27 03:43:30;;;;;;;23.00;4.95;;;18.10;99.90;;;;;;5032873;28;20049;-71
2023/06/27 03:45:56;;;;;;;15.35;4.97;;;18.10;99.90;;;;;;5034480;28;20338;-71
2023/06/27 03:48:22;;;;;;;19.35;5.10;;;18.00;99.90;;;;;;5033535;28;20021;-71
2023/06/27 03:50:47;;;;;;;17.42;5.15;;;18.00;99.90;;;;;;5021602;28;20026;-72
2023/06/27 03:53:13;;;;;;;18.75;5.30;;;18.00;99.90;;;;;;5029438;28;20042;-71
2023/06/27 03:55:40;;;;;;;14.05;4.82;;;18.00;99.90;;;;;;5027731;28;20104;-71
2023/06/27 03:58:06;;;;;;;21.58;5.30;;;17.90;99.90;;;;;;5031406;28;20033;-72
2023/06/27 04:00:32;;;;;;;21.27;5.40;;;17.90;99.90;;;;;;5019873;28;20105;-71
2023/06/27 04:02:59;;;;;;;19.13;5.47;;;17.90;99.90;;;;;;5026226;28;20112;-71
2023/06/27 04:05:25;;;;;;;19.25;5.28;;;17.80;99.90;;;;;;5030938;28;20032;-71
2023/06/27 04:07:50;;;;;;;17.50;5.78;;;17.80;99.90;;;;;;5015497;28;20021;-71
2023/06/27 04:10:18;;;;;;;18.15;5.57;;;17.80;99.90;;;;;;5019815;28;20021;-71
2023/06/27 04:12:44;;;;;;;20.73;5.18;;;17.70;99.90;;;;;;5034003;28;20028;-71
2023/06/27 04:15:10;;;;;;;16.88;5.70;;;17.70;99.90;;;;;;5024994;28;20096;-71
2023/06/27 04:17:35;;;;;;;17.10;5.75;;;17.60;99.90;;;;;;5022873;28;20421;-72
2023/06/27 04:20:02;;;;;;;16.92;6.05;;;17.60;99.90;;;;;;5018649;28;20021;-72
2023/06/27 04:22:27;;;;;;;18.98;5.57;;;17.50;99.90;;;;;;5024832;28;20056;-71
2023/06/27 04:24:53;;;;;;;18.67;5.15;;;17.50;99.90;;;;;;5027566;28;20053;-74
2023/06/27 04:27:18;;;;;;;22.92;6.43;;;17.60;99.90;;;;;;5028620;28;20504;-71
2023/06/27 04:29:44;;;;;;;17.25;5.55;;;17.60;99.90;;;;;;5029523;28;20060;-71
2023/06/27 04:32:10;;;;;;;18.48;5.32;;;17.60;99.90;;;;;;5032030;28;20101;-71
2023/06/27 04:34:36;;;;;;;18.20;5.35;;;17.60;99.90;;;;;;5032640;28;20097;-71
2023/06/27 04:37:03;;;;;;;18.55;5.10;;;17.60;99.90;;;;;;5020362;28;20495;-74
2023/06/27 04:39:29;;;;;;;12.55;4.80;;;17.70;99.90;;;;;;5019869;28;20032;-74
2023/06/27 04:41:56;;;;;;;21.10;5.03;;;17.60;99.90;;;;;;5030429;28;20022;-74
2023/06/27 04:44:22;;;;;;;15.68;5.13;;;17.70;99.90;;;;;;5033503;28;20124;-74
2023/06/27 04:46:48;;;;;;;19.55;4.80;;;17.60;99.90;;;;;;5029766;28;20142;-74
2023/06/27 04:49:14;;;;;;;15.77;4.80;;;17.70;99.90;;;;;;5031946;28;20033;-74
2023/06/27 04:51:39;;;;;;;16.58;5.43;;;17.60;99.90;;;;;;5028322;28;20384;-74
2023/06/27 04:54:05;;;;;;;16.88;4.88;;;17.70;99.90;;;;;;5029627;28;20049;-74
2023/06/27 04:56:30;;;;;;;18.75;4.90;;;17.60;99.90;;;;;;5031819;28;20068;-74
2023/06/27 04:58:56;;;;;;;16.88;4.53;;;17.70;99.90;;;;;;5025282;28;20026;-74
2023/06/27 05:01:22;;;;;;;17.85;4.40;;;17.70;99.90;;;;;;5025224;28;20020;-74
2023/06/27 05:03:48;;;;;;;16.83;3.92;;;17.70;99.90;;;;;;5030609;28;20372;-74
2023/06/27 05:06:13;;;;;;;18.38;4.00;;;17.70;99.90;;;;;;5021887;28;20168;-74
2023/06/27 05:08:40;;;;;;;11.55;3.75;;;17.80;99.90;;;;;;5032815;28;20130;-74
2023/06/27 05:11:05;;;;;;;14.10;3.42;;;17.80;99.90;;;;;;5028727;28;20391;-74
2023/06/27 05:13:31;;;;;;;17.85;3.95;;;17.80;99.90;;;;;;5031261;28;20017;-75
2023/06/27 05:15:58;;;;;;;15.32;3.42;;;17.80;99.90;;;;;;5022317;28;20045;-74
2023/06/27 05:18:24;;;;;;;12.23;2.92;;;17.90;99.90;;;;;;5027671;28;20022;-74
2023/06/27 05:20:50;;;;;;;13.48;2.83;;;17.90;99.90;;;;;;5029874;28;20019;-74
2023/06/27 05:23:16;;;;;;;9.27;2.60;;;17.90;99.90;;;;;;5032717;28;20453;-74
2023/06/27 05:25:42;;;;;;;7.70;2.60;;;17.90;99.90;;;;;;5032282;28;20056;-75
2023/06/27 05:28:08;;;;;;;9.15;2.97;;;17.90;99.90;;;;;;5031880;28;20143;-75
2023/06/27 05:30:34;;;;;;;8.88;2.50;;;18.00;99.90;;;;;;5019712;28;20053;-75
2023/06/27 05:33:01;;;;;;;11.10;2.53;;;18.00;99.90;;;;;;5030431;28;20496;-75
2023/06/27 05:35:27;;;;;;;6.95;2.20;;;18.00;99.90;;;;;;5028666;28;20010;-75
2023/06/27 05:37:53;;;;;;;9.77;2.45;;;18.10;99.90;;;;;;5030167;28;20526;-75
2023/06/27 05:40:18;;;;;;;10.65;3.25;;;18.10;99.90;;;;;;5031078;28;20499;-75
2023/06/27 05:42:44;;;;;;;17.05;2.78;;;18.10;99.90;;;;;;5019140;28;20087;-74
2023/06/27 05:45:10;;;;;;;8.13;2.28;;;18.10;99.90;;;;;;5023710;28;20036;-74
2023/06/27 05:47:35;;;;;;;7.95;2.33;;;18.10;99.90;;;;;;5022626;28;20029;-74
2023/06/27 05:50:01;;;;;;;9.32;2.08;;;18.10;99.90;;;;;;5031849;28;20495;-74
2023/06/27 05:52:29;;;;;;;10.93;2.50;;;18.20;99.90;;;;;;5023942;28;20016;-73
2023/06/27 05:54:55;;;;;;;7.10;2.00;;;18.20;99.90;;;;;;5025022;28;20096;-73
2023/06/27 05:57:22;;;;;;;5.03;1.80;;;18.30;99.90;;;;;;5032100;28;20033;-74
2023/06/27 05:59:47;;;;;;;6.72;2.00;;;18.30;99.90;;;;;;5030536;28;20018;-74
2023/06/27 06:02:13;;;;;;;9.57;2.03;;;18.40;99.90;;;;;;5026177;28;20492;-73
2023/06/27 06:04:38;;;;;;;5.95;1.75;;;18.40;99.90;;;;;;5029570;28;20025;-73
2023/06/27 06:07:04;;;;;;;9.88;2.05;;;18.40;99.90;;;;;;5031738;28;21172;-75
2023/06/27 06:09:30;;;;;;;11.35;2.10;;;18.50;99.90;;;;;;5031950;28;20017;-75
2023/06/27 06:11:56;;;;;;;5.63;1.70;;;18.50;99.90;;;;;;5018057;28;20014;-75
2023/06/27 06:14:22;;;;;;;10.07;2.08;;;18.60;99.90;;;;;;5031697;28;20030;-74
2023/06/27 06:16:48;;;;;;;6.00;1.90;;;18.70;99.90;;;;;;5031329;28;20036;-75
2023/06/27 06:19:14;;;;;;;6.05;1.52;;;18.70;99.90;;;;;;5022112;28;20028;-73
2023/06/27 06:21:40;;;;;;;5.05;1.90;;;18.70;99.90;;;;;;5030965;28;20089;-73
2023/06/27 06:24:08;;;;;;;6.03;1.60;;;18.80;99.90;;;;;;5029356;28;20022;-72
2023/06/27 06:26:35;;;;;;;9.00;1.75;;;18.80;99.90;;;;;;5027211;28;20029;-73
2023/06/27 06:29:02;;;;;;;5.97;1.60;;;18.90;99.90;;;;;;5028586;28;20094;-73
2023/06/27 06:31:28;;;;;;;7.70;1.33;;;19.00;99.90;;;;;;5029936;28;20049;-74
2023/06/27 06:33:55;;;;;;;5.15;1.40;;;19.00;99.90;;;;;;5028883;28;20068;-73
2023/06/27 06:36:21;;;;;;;3.72;1.33;;;19.10;99.90;;;;;;5030145;28;20021;-72
2023/06/27 06:38:47;;;;;;;4.35;1.40;;;19.30;99.90;;;;;;5030586;28;20033;-73
2023/06/27 06:41:13;;;;;;;4.80;1.45;;;19.40;99.90;;;;;;5023333;28;20030;-73
2023/06/27 06:43:39;;;;;;;6.15;1.33;;;19.50;99.90;;;;;;5027335;28;20064;-73
2023/06/27 06:46:05;;;;;;;7.78;1.45;;;19.70;99.90;;;;;;5029803;28;20061;-72
2023/06/27 06:48:30;;;;;;;7.32;1.63;;;19.80;99.90;;;;;;5031062;28;20017;-72
2023/06/27 06:50:56;;;;;;;4.88;1.30;;;19.90;99.90;;;;;;5028412;28;20079;-73
2023/06/27 06:53:22;;;;;;;5.85;1.40;;;20.00;99.90;;;;;;5030682;28;20045;-73
2023/06/27 06:55:48;;;;;;;4.43;1.30;;;20.10;99.90;;;;;;5025272;28;20026;-73
2023/06/27 06:58:14;;;;;;;8.15;1.25;;;20.30;99.90;;;;;;5025543;28;20049;-73
2023/06/27 07:00:39;;;;;;;5.35;1.35;;;20.40;99.90;;;;;;5033350;28;20052;-73
2023/06/27 07:03:09;;;;;;;7.93;1.33;;;20.60;99.90;;;;;;5030262;28;20210;-73
2023/06/27 07:05:35;;;;;;;8.15;1.70;;;20.70;99.90;;;;;;5032218;28;20038;-73
2023/06/27 07:08:05;;;;;;;4.72;0.95;;;20.80;99.90;;;;;;5021904;28;20647;-73
2023/06/27 07:10:32;;;;;;;6.22;1.35;;;20.90;99.90;;;;;;5035710;28;20021;-73
2023/06/27 07:12:59;;;;;;;4.22;1.00;;;21.00;99.90;;;;;;5035983;28;20030;-73
2023/06/27 07:15:29;;;;;;;3.83;1.10;;;21.10;99.90;;;;;;5033703;28;20029;-73
2023/06/27 07:17:55;;;;;;;4.97;1.33;;;21.30;99.90;;;;;;5034396;28;20030;-73
2023/06/27 07:20:22;;;;;;;7.47;1.38;;;21.30;99.90;;;;;;5019882;28;20022;-73
2023/06/27 07:22:48;;;;;;;6.85;1.30;;;21.20;99.90;;;;;;5029704;28;20018;-74
2023/06/27 07:25:14;;;;;;;2.95;0.90;;;21.20;99.90;;;;;;5028291;28;20017;-74
2023/06/27 07:27:40;;;;;;;5.97;1.58;;;21.20;99.80;;;;;;5035054;28;20026;-73
2023/06/27 07:30:07;;;;;;;6.53;1.23;;;21.10;99.10;;;;;;5034114;28;20503;-73
2023/06/27 07:32:32;;;;;;;6.55;1.30;;;21.20;99.00;;;;;;5034716;28;20033;-73
2023/06/27 07:34:58;;;;;;;3.33;1.30;;;21.10;98.70;;;;;;5032378;28;20364;-73
2023/06/27 07:37:24;;;;;;;5.22;1.20;;;21.20;98.20;;;;;;5031540;28;20030;-74
2023/06/27 07:39:49;;;;;;;5.10;1.27;;;21.10;97.90;;;;;;5030294;28;20385;-73
2023/06/27 07:42:17;;;;;;;5.15;1.25;;;21.10;98.00;;;;;;5029365;28;20029;-74
2023/06/27 07:44:43;;;;;;;8.55;1.35;;;21.20;98.00;;;;;;5030064;28;20504;-73
2023/06/27 07:47:08;;;;;;;7.10;1.02;;;21.20;97.40;;;;;;5035324;28;20053;-73
2023/06/27 07:49:34;;;;;;;6.68;1.10;;;21.20;97.30;;;;;;5032412;28;20025;-74
2023/06/27 07:52:00;;;;;;;4.18;1.08;;;21.30;96.80;;;;;;5034923;28;20033;-73
2023/06/27 07:54:27;;;;;;;6.28;1.52;;;21.30;96.80;;;;;;5034870;28;20515;-73
2023/06/27 07:56:54;;;;;;;5.05;1.05;;;21.30;96.70;;;;;;5028475;28;20362;-73
2023/06/27 07:59:20;;;;;;;5.50;1.20;;;21.30;96.60;;;;;;5034578;28;20021;-73
2023/06/27 08:01:46;;;;;;;7.10;1.23;;;21.30;96.50;;;;;;5030851;28;20029;-73
2023/06/27 08:04:12;;;;;;;4.32;1.20;;;21.40;96.30;;;;;;5029283;28;20484;-73
2023/06/27 08:06:38;;;;;;;7.57;1.38;;;21.40;95.70;;;;;;5026619;28;20025;-74
2023/06/27 08:09:03;;;;;;;5.45;1.40;;;21.40;95.40;;;;;;5019680;28;20180;-73
2023/06/27 08:11:29;;;;;;;5.53;1.20;;;21.40;95.10;;;;;;5030180;28;20100;-72
2023/06/27 08:13:55;;;;;;;5.00;1.17;;;21.50;94.30;;;;;;5029670;28;20505;-72
2023/06/27 08:16:20;;;;;;;6.53;1.20;;;21.50;94.40;;;;;;5031154;28;20688;-71
2023/06/27 08:18:47;;;;;;;4.85;1.25;;;21.50;94.60;;;;;;5034178;28;20025;-71
2023/06/27 08:21:12;;;;;;;5.55;1.40;;;21.60;94.50;;;;;;5034156;28;20021;-69
2023/06/27 08:23:38;;;;;;;4.40;1.48;;;21.40;94.20;;;;;;5033904;28;20373;-70
2023/06/27 08:26:03;;;;;;;5.72;1.13;;;21.50;94.10;;;;;;5033659;28;20419;-70
2023/06/27 08:28:29;;;;;;;5.22;1.30;;;21.50;93.50;;;;;;5033057;28;20869;-70
2023/06/27 08:30:56;;;;;;;4.95;1.17;;;21.40;93.20;;;;;;5032168;28;20032;-71
2023/06/27 08:33:23;;;;;;;5.55;1.42;;;21.40;93.40;;;;;;5032057;28;20026;-70
2023/06/27 08:35:49;;;;;;;6.15;1.45;;;21.40;93.40;;;;;;5033182;28;20049;-70
2023/06/27 08:38:14;;;;;;;8.13;1.38;;;21.50;93.50;;;;;;5027229;28;20508;-71
2023/06/27 08:40:42;;;;;;;5.45;1.35;;;21.60;93.40;;;;;;5024470;28;20141;-70
2023/06/27 08:43:09;;;;;;;5.80;1.17;;;21.50;93.20;;;;;;5030118;28;20515;-73
2023/06/27 08:45:37;;;;;;;6.75;1.30;;;21.50;93.30;;;;;;5033444;28;20063;-73
2023/06/27 08:48:06;;;;;;;6.63;1.15;;;21.60;93.30;;;;;;5022350;28;20013;-73
2023/06/27 08:50:39;;;;;;;6.90;1.63;;;21.60;93.50;;;;;;5026405;28;20109;-73
2023/06/27 08:53:07;;;;;;;5.32;1.30;;;21.70;93.40;;;;;;5032839;28;20045;-73
2023/06/27 08:55:33;;;;;;;5.78;1.40;;;21.80;93.30;;;;;;5019601;28;20060;-73
2023/06/27 08:58:03;;;;;;;4.50;1.30;;;21.80;93.20;;;;;;5027466;28;20116;-73
2023/06/27 09:00:30;;;;;;;8.13;1.35;;;21.90;92.80;;;;;;5032648;28;20017;-73
2023/06/27 09:02:56;;;;;;;5.07;1.38;;;21.80;92.60;;;;;;5027669;28;20025;-75
2023/06/27 09:05:22;;;;;;;3.90;1.00;;;21.80;92.60;;;;;;5031314;28;20029;-73
2023/06/27 09:07:49;;;;;;;7.75;1.30;;;21.70;92.50;;;;;;5031693;28;20032;-73
2023/06/27 09:10:15;;;;;;;6.63;1.75;;;21.70;92.70;;;;;;5032510;28;20164;-73
2023/06/27 09:12:43;;;;;;;5.43;1.27;;;21.70;93.10;;;;;;5032147;28;20100;-74
2023/06/27 09:15:10;;;;;;;4.75;1.30;;;21.70;93.10;;;;;;5031558;28;20048;-74
2023/06/27 09:17:37;;;;;;;5.45;1.30;;;21.80;93.30;;;;;;5015188;28;20081;-75
2023/06/27 09:20:05;;;;;;;6.50;1.25;;;21.80;93.30;;;;;;5014442;28;20373;-74
2023/06/27 09:22:31;;;;;;;5.70;1.30;;;21.90;93.30;;;;;;5032550;28;20045;-74
2023/06/27 09:25:14;;;;;;;3.78;1.20;;;22.00;93.20;;;;;;5031308;28;20192;-74
2023/06/27 09:27:41;;;;;;;3.70;1.40;;;22.00;92.70;;;;;;5024426;28;20497;-74
2023/06/27 09:30:08;;;;;;;5.72;1.00;;;21.90;93.20;;;;;;5021983;28;20028;-74
2023/06/27 09:33:03;;;;;;;4.43;1.20;;;22.00;93.50;;;;;;5026067;28;20033;-74
2023/06/27 09:35:31;;;;;;;7.03;1.25;;;22.20;92.70;;;;;;5035023;28;20167;-74
2023/06/27 09:38:08;;;;;;;4.65;1.05;;;22.40;92.80;;;;;;5032510;28;20072;-75
2023/06/27 09:40:35;;;;;;;5.72;1.40;;;22.60;92.10;;;;;;5024078;28;20136;-74
2023/06/27 09:43:01;;;;;;;5.45;1.20;;;22.80;91.70;;;;;;5029013;28;20037;-74
2023/06/27 09:45:29;;;;;;;4.85;1.27;;;23.10;91.10;;;;;;5021779;28;20044;-75
2023/06/27 09:47:55;;;;;;;6.03;1.23;;;23.40;90.30;;;;;;5016230;28;20028;-74
2023/06/27 09:50:31;;;;;;;6.00;1.35;;;23.60;88.30;;;;;;5013999;28;20022;-74
2023/06/27 09:53:05;;;;;;;6.53;1.45;;;23.60;86.70;;;;;;5027507;28;20050;-74
2023/06/27 09:55:31;;;;;;;4.18;1.27;;;23.60;85.80;;;;;;5029164;28;20040;-74
2023/06/27 09:57:58;;;;;;;5.70;1.38;;;23.60;86.30;;;;;;5016220;28;20045;-73
2023/06/27 10:00:26;;;;;;;5.82;1.27;;;23.70;85.70;;;;;;5017514;28;20021;-74
2023/06/27 10:02:52;;;;;;;5.90;1.13;;;23.70;84.50;;;;;;5025599;28;20025;-74
2023/06/27 10:05:22;;;;;;;3.85;1.13;;;23.70;84.40;;;;;;5029664;28;20060;-74
2023/06/27 10:07:49;;;;;;;8.65;1.45;;;23.80;85.10;;;;;;5013052;28;20034;-74
2023/06/27 10:10:16;;;;;;;4.38;1.35;;;24.00;84.00;;;;;;5013620;28;20025;-74
2023/06/27 10:12:43;;;;;;;7.22;1.55;;;24.00;83.00;;;;;;5014849;28;20028;-73
2023/06/27 10:15:10;;;;;;;6.85;1.45;;;24.00;82.70;;;;;;5024011;28;20018;-73
2023/06/27 10:17:37;;;;;;;2.92;1.17;;;24.00;81.00;;;;;;5030829;28;20037;-73
2023/06/27 10:20:08;;;;;;;4.88;1.25;;;24.00;80.30;;;;;;5023515;28;20373;-73
2023/06/27 10:22:36;;;;;;;12.00;1.77;;;24.00;78.90;;;;;;5032112;28;20029;-73
2023/06/27 10:25:05;;;;;;;6.38;1.40;;;24.00;79.00;;;;;;5030775;28;20036;-73
2023/06/27 10:27:35;;;;;;;7.80;1.20;;;23.80;78.80;;;;;;5025030;28;20029;-73
2023/06/27 10:30:19;;;;;;;7.47;1.38;;;23.90;79.20;;;;;;5031423;28;20018;-73
2023/06/27 10:32:47;;;;;;;7.97;1.30;;;24.00;77.90;;;;;;5030520;28;20492;-73
2023/06/27 10:35:24;;;;;;;4.88;1.30;;;24.10;77.40;;;;;;5029262;28;20025;-73
2023/06/27 10:38:19;;;;;;;6.05;1.50;;;24.10;76.60;;;;;;5031149;28;20469;-73
2023/06/27 10:40:59;;;;;;;5.53;1.50;;;23.90;76.90;;;;;;5025067;28;20101;-73
2023/06/27 10:43:37;;;;;;;6.38;1.40;;;24.00;77.20;;;;;;5030728;28;20029;-73
2023/06/27 10:46:22;;;;;;;5.65;1.40;;;24.10;76.50;;;;;;5030303;28;20048;-73
2023/06/27 10:48:54;;;;;;;9.45;1.75;;;24.10;76.00;;;;;;5031344;28;20017;-73
2023/06/27 10:51:22;;;;;;;4.32;1.15;;;24.10;75.60;;;;;;5024019;28;20021;-73
2023/06/27 10:54:06;;;;;;;5.75;1.30;;;24.20;75.90;;;;;;5031166;28;20489;-73
2023/06/27 10:56:34;;;;;;;7.22;1.55;;;24.30;73.80;;;;;;5029466;28;20120;-73
2023/06/27 10:59:02;;;;;;;7.53;1.40;;;24.20;73.80;;;;;;5031167;28;20384;-73
2023/06/27 11:01:29;;;;;;;9.40;1.52;;;24.10;73.50;;;;;;5018252;28;20018;-73
2023/06/27 11:03:57;;;;;;;7.80;1.38;;;24.00;73.90;;;;;;5021907;28;20045;-73
2023/06/27 11:06:39;;;;;;;7.70;1.60;;;23.90;73.10;;;;;;5024759;28;20014;-73
2023/06/27 11:09:05;;;;;;;9.10;1.50;;;23.90;73.00;;;;;;5028255;28;20388;-73
2023/06/27 11:11:33;;;;;;;9.48;1.50;;;23.90;73.30;;;;;;5031437;28;20469;-73
2023/06/27 11:14:08;;;;;;;5.43;1.38;;;24.00;73.20;;;;;;5025402;28;20022;-73
2023/06/27 11:16:35;;;;;;;4.85;1.40;;;24.20;72.70;;;;;;5020431;28;20547;-73
2023/06/27 11:19:04;;;;;;;5.57;1.38;;;24.60;72.70;;;;;;5026054;28;20061;-73
2023/06/27 11:21:31;;;;;;;8.80;1.63;;;24.70;70.90;;;;;;5013901;28;20024;-73
2023/06/27 11:23:59;;;;;;;7.43;1.45;;;24.70;69.50;;;;;;5017691;28;20025;-73
2023/06/27 11:26:27;;;;;;;8.68;1.52;;;24.60;68.40;;;;;;5015641;28;20018;-73
2023/06/27 11:28:52;;;;;;;5.00;1.20;;;24.60;68.00;;;;;;5030049;28;20022;-73
2023/06/27 11:31:18;;;;;;;9.63;1.83;;;24.50;68.40;;;;;;5031166;28;20449;-72
2023/06/27 11:33:44;;;;;;;4.28;1.20;;;24.40;68.60;;;;;;5030998;28;20021;-73
2023/06/27 11:36:10;;;;;;;6.82;1.45;;;24.40;68.80;;;;;;5028412;28;20045;-72
2023/06/27 11:38:36;;;;;;;5.05;1.25;;;24.50;68.80;;;;;;5025289;28;20076;-73
2023/06/27 11:41:02;;;;;;;4.15;1.60;;;24.40;68.10;;;;;;5031030;28;20045;-72
2023/06/27 11:43:28;;;;;;;4.72;1.40;;;24.20;68.10;;;;;;5032883;28;20013;-73
2023/06/27 11:45:58;;;;;;;4.13;1.27;;;24.20;69.80;;;;;;5029887;28;20048;-72
2023/06/27 11:48:23;;;;;;;6.35;1.50;;;24.20;67.20;;;;;;5021605;28;20083;-73
2023/06/27 11:51:06;;;;;;;5.45;1.48;;;24.20;67.50;;;;;;5021630;28;20018;-72
2023/06/27 11:53:33;;;;;;;6.60;1.48;;;24.00;67.50;;;;;;5018661;28;20041;-72
2023/06/27 11:55:59;;;;;;;3.65;1.30;;;23.80;67.30;;;;;;5030422;28;20041;-72
2023/06/27 11:58:30;;;;;;;7.70;1.60;;;23.70;67.90;;;;;;5024673;28;20084;-73
2023/06/27 12:00:57;;;;;;;7.55;1.60;;;23.70;68.60;;;;;;5025419;28;20041;-71
2023/06/27 12:03:30;;;;;;;7.93;1.80;;;23.50;69.30;;;;;;5023558;28;20029;-71
2023/06/27 12:05:57;;;;;;;7.53;1.40;;;23.40;69.40;;;;;;5033867;28;20080;-72
2023/06/27 12:08:33;;;;;;;4.80;1.52;;;23.30;70.10;;;;;;5029087;28;20045;-70
2023/06/27 12:11:02;;;;;;;6.00;1.75;;;23.30;70.40;;;;;;5029557;28;20032;-69
2023/06/27 12:13:32;;;;;;;8.32;1.50;;;23.30;70.90;;;;;;5033987;28;20025;-70
2023/06/27 12:15:58;;;;;;;6.43;1.30;;;23.30;70.00;;;;;;5027477;28;20025;-70
2023/06/27 12:18:30;;;;;;;7.70;1.50;;;23.30;70.80;;;;;;5033508;28;20346;-70
2023/06/27 12:20:57;;;;;;;5.28;1.30;;;23.40;70.80;;;;;;5024789;28;20407;-69
2023/06/27 12:23:23;;;;;;;8.80;1.30;;;23.30;69.60;;;;;;5033683;28;20029;-69
2023/06/27 12:25:49;;;;;;;5.43;1.40;;;23.20;70.50;;;;;;5026726;28;20052;-70
2023/06/27 12:28:15;;;;;;;4.05;1.38;;;23.30;71.10;;;;;;5029676;28;20021;-69
2023/06/27 12:30:41;;;;;;;6.22;1.50;;;23.40;70.70;;;;;;5033520;28;20057;-69
2023/06/27 12:33:08;;;;;;;5.93;1.80;;;23.40;70.60;;;;;;5026391;28;20028;-70
2023/06/27 12:35:33;;;;;;;4.97;1.58;;;23.40;70.70;;;;;;5031765;28;20025;-70
2023/06/27 12:37:59;;;;;;;5.88;1.45;;;23.70;70.80;;;;;;5028499;28;20566;-71
2023/06/27 12:40:25;;;;;;;7.30;1.52;;;23.70;69.50;;;;;;5030803;28;20030;-71
2023/06/27 12:42:54;;;;;;;8.70;1.80;;;23.80;68.60;;;;;;5032645;28;20105;-71
2023/06/27 12:45:21;;;;;;;5.82;1.30;;;23.80;68.10;;;;;;5029733;28;20025;-71